Detalii statie AGRONOVA [00001CEC]

Toti senzorii

Date Temperatura solului [C]Precipitatii [mm]Voltaj baterie [mV]Leaf Wetness [Min]HC Air temperature [C]HC Relative humidity [%]Punctul de roua [C]
medieminmaxsumaultimatimpmedieminmaxmediemediemin
2018-08-12 11:00:00 22.1 21.9 22.2 0 7236 28.04 26.73 29.05 0 0 0
2018-08-12 12:00:00 22.5 22.3 22.8 0 7236 30.28 29.63 31.77 0 0 0
2018-08-12 13:00:00 23 22.8 23.3 0 7236 33 30.32 34.4 0 0 0
2018-08-12 14:00:00 23.5 23.3 24.1 0 7236 33.49 32.22 34.51 0 0 0
2018-08-12 15:00:00 24.1 23.9 24.5 0 7236 33.81 32.91 34.64 0 0 0
2018-08-12 16:00:00 24.4 24.2 24.6 0 7138 33.22 32.08 33.67 0 0 0
2018-08-12 17:00:00 24.5 24.4 24.6 0 7060 31.55 31.09 32.87 0 0 0
2018-08-12 18:00:00 24.4 24.3 24.6 0 6972 29.85 28.73 31.37 0 0 0
2018-08-12 19:00:00 24 23.9 24.3 0 6874 27.23 25.02 28.7 0 0 0
2018-08-12 20:00:00 23.8 23.7 24.2 0 6718 23.23 21.09 25.11 0 0 0
2018-08-12 21:00:00 23.6 23.5 24 0 6630 20.13 19.25 20.8 0 0 0
2018-08-12 22:00:00 23.3 23.3 23.4 0 6610 18.92 18.05 19.71 0 0 0
2018-08-12 23:00:00 23 22.9 23.2 0 6600 18.06 17.28 18.72 0 0 0
2018-08-13 00:00:00 22.8 22.7 23 0 6600 17.97 17.39 18.4 0 0 0
2018-08-13 01:00:00 22.6 22.5 23 0 6600 17.77 16.99 18.56 0 0 0
2018-08-13 02:00:00 22.4 22.3 22.6 0 6600 15.75 14.93 17.11 0 0 0
2018-08-13 03:00:00 22.2 22 22.4 0 6590 14.17 13.61 14.79 0 0 0
2018-08-13 04:00:00 22 21.9 22.1 0 6582 14.38 13.6 14.89 0 0 0
2018-08-13 05:00:00 21.8 21.6 22 0 6572 13.63 12.66 14.85 0 0 0
2018-08-13 06:00:00 21.6 21.5 21.8 0 6572 13.26 12.83 13.65 0 0 0
2018-08-13 07:00:00 21.4 21.4 21.6 0 6630 15.81 13.34 18.7 0 0 0
2018-08-13 08:00:00 21.3 21.2 21.5 0 6678 20.8 19.41 23.02 0 0 0
2018-08-13 09:00:00 21.4 21.3 21.6 0 6738 25.82 23.09 27.32 0 0 0
2018-08-13 10:00:00 21.6 21.5 21.8 0 6962 28.78 27.08 30.31 0 0 0
2018-08-13 11:00:00 22.1 21.8 22.3 0 7246 30.94 30.16 31.99 0 0 0
2018-08-13 12:00:00 22.6 22.4 23 0 7236 31.41 30.69 31.93 0 0 0
2018-08-13 13:00:00 23.1 22.9 23.4 0 7236 32.28 31.55 32.71 0 0 0
2018-08-13 14:00:00 23.7 23.4 24 0 7236 32.77 32.18 33.55 0 0 0
2018-08-13 15:00:00 24.2 23.9 24.5 0 7236 33 32.01 33.45 0 0 0
2018-08-13 16:00:00 24.4 24.2 24.6 0 7236 32.22 31.87 32.72 0 0 0
2018-08-13 17:00:00 24.5 24.2 24.8 0 7226 31.69 31.25 32.17 0 0 0
2018-08-13 18:00:00 24.4 24.2 24.6 0 7010 30.84 30.26 31.21 0 0 0
2018-08-13 19:00:00 24.2 24 24.5 0 6884 29.03 27.02 30.09 0 0 0
2018-08-13 20:00:00 24 23.8 24.3 0 6718 25.53 24.05 26.72 0 0 0
2018-08-13 21:00:00 23.7 23.6 23.8 0 6640 23.11 22.52 23.72 0 0 0
2018-08-13 22:00:00 23.4 23.3 23.6 0 6620 20.98 18.1 23.17 0 0 0
2018-08-13 23:00:00 23.2 23.1 23.4 0 6610 19.19 18.63 19.81 0 0 0
2018-08-14 00:00:00 22.8 22.8 23.1 0 6610 18.29 17.88 19.06 0 0 0
2018-08-14 01:00:00 22.6 22.5 22.8 0 6600 17.35 16.35 18.38 0 0 0
2018-08-14 02:00:00 22.4 22.4 22.6 0 6600 15.61 14.79 16.52 0 0 0
2018-08-14 03:00:00 22.2 22 22.4 0 6590 15.67 14.77 16.66 0 0 0
2018-08-14 04:00:00 22 21.9 22.2 0 6590 14.35 13.71 14.6 0 0 0
2018-08-14 05:00:00 21.7 21.6 21.9 0 6582 14.56 13.37 15.53 0 0 0
2018-08-14 06:00:00 21.6 21.5 21.8 0 6582 13.38 12.37 14.94 0 0 0
2018-08-14 07:00:00 21.4 21.3 21.6 0 6620 16.53 14.88 18.15 0 0 0
2018-08-14 08:00:00 21.3 21.3 21.5 0 6668 20.23 18.53 21.85 0 0 0
2018-08-14 09:00:00 21.4 21.3 21.7 0 6738 23.45 21.92 25.27 0 0 0
2018-08-14 10:00:00 21.6 21.5 21.8 0 7020 26.24 25.17 27.1 0 0 0